Geroi Shipki — EOIB — position and weather

sailwx.info

Track history (hours):
 
Tides and Currents Weather Stations Pressure Air Temp Water Temp Dewpoint Dewpoint Depression Visibility Wind Speed Wind Dir Waves Ship Positions

Geroi Shipki

Last reported at 2014-Sep-01 19:21 UTC. Time now 2014-Sep-02 19:08 UTC.
Position N 43°03' E 038°00'.

Length 184 m; draft 6.5 m.

Type: Cargo ship. MMSI: 272976000.

Date/timePositionNaut miles runAvg speedWind from/ knotsBaromVisibWave heightAir tempDewpointWater temp
2014-Sep-01 19:21N 43°03' E 038°00'8 9.9
2014-Sep-01 18:31N 43°05' E 037°50'9 9.8
2014-Sep-01 17:33N 43°09' E 037°37'1010.0
2014-Sep-01 16:33N 43°12' E 037°24'10 9.7
2014-Sep-01 15:29N 43°15' E 037°11'11 9.3
2014-Sep-01 14:20N 43°19' E 036°57'48 9.6
2014-Sep-01 09:17N 43°34' E 035°54'7 9.7
2014-Sep-01 08:33N 43°37' E 035°45'10 9.8
2014-Sep-01 07:33N 43°40' E 035°32'10 9.8
2014-Sep-01 06:33N 43°43' E 035°19'11 9.7
2014-Sep-01 05:28N 43°46' E 035°05'104 8.4
2014-Aug-31 17:07N 44°38' E 032°59'7 7.5
2014-Aug-31 16:10N 44°43' E 032°53'84 5.6
2014-Aug-31 01:11N 45°45' E 031°33'5 7.1
2014-Aug-31 00:32N 45°49' E 031°30'8 7.4
2014-Aug-30 23:30N 45°54' E 031°22'16 7.4
2014-Aug-30 21:17N 46°06' E 031°06'13 7.3
2014-Aug-30 19:33N 46°15' E 030°53'8 7.4
2014-Aug-30 18:32N 46°18' E 030°43'329 7.6
2014-Aug-28 23:19N 40°58' E 028°60'8 9.3
2014-Aug-28 22:28N 40°51' E 029°00'4 0.6
2014-Aug-28 16:26N 40°47' E 029°01'2 0.8
2014-Aug-28 14:27N 40°48' E 029°03'8 8.5
2014-Aug-28 13:33N 40°43' E 029°11'2 0.8
2014-Aug-28 10:20N 40°45' E 029°08'4 2.0
2014-Aug-28 08:31N 40°45' E 029°13'1210.4
2014-Aug-28 07:24N 40°45' E 029°29'8 8.9
2014-Aug-28 06:31N 40°45' E 029°39'3 0.1
2014-Aug-26 04:04N 40°44' E 029°43'912.5
2014-Aug-26 03:22N 40°45' E 029°31'8 9.9
2014-Aug-26 02:33N 40°44' E 029°21'9 9.1
2014-Aug-26 01:33N 40°46' E 029°09'2 1.0
2014-Aug-25 23:15N 40°48' E 029°07'1 1.2
2014-Aug-25 22:15N 40°47' E 029°08'2 1.0
2014-Aug-25 20:25N 40°47' E 029°11'6 7.0
2014-Aug-25 19:31N 40°50' E 029°03'7 6.9
2014-Aug-25 18:29N 40°55' E 028°56'25 1.2
2014-Aug-24 22:06N 41°18' E 029°05'14 9.3
2014-Aug-24 20:32N 41°25' E 029°23'9 9.6
2014-Aug-24 19:33N 41°28' E 029°34'10 9.5
2014-Aug-24 18:30N 41°31' E 029°47'  
Track history (hours):
 
Tides and Currents Weather Stations Pressure Air Temp Water Temp Dewpoint Dewpoint Depression Visibility Wind Speed Wind Dir Waves Ship Positions

Geroi Shipki

Last reported at 2014-Sep-01 19:21 UTC. Time now 2014-Sep-02 19:08 UTC.
Position N 43°03' E 038°00'.

Length 184 m; draft 6.5 m.

Type: Cargo ship. MMSI: 272976000.

Date/timePositionNaut miles runAvg speedWind from/ knotsBaromVisibWave heightAir tempDewpointWater temp
2014-Sep-01 19:21N 43°03' E 038°00'8 9.9
2014-Sep-01 18:31N 43°05' E 037°50'9 9.8
2014-Sep-01 17:33N 43°09' E 037°37'1010.0
2014-Sep-01 16:33N 43°12' E 037°24'10 9.7
2014-Sep-01 15:29N 43°15' E 037°11'11 9.3
2014-Sep-01 14:20N 43°19' E 036°57'48 9.6
2014-Sep-01 09:17N 43°34' E 035°54'7 9.7
2014-Sep-01 08:33N 43°37' E 035°45'10 9.8
2014-Sep-01 07:33N 43°40' E 035°32'10 9.8
2014-Sep-01 06:33N 43°43' E 035°19'11 9.7
2014-Sep-01 05:28N 43°46' E 035°05'104 8.4
2014-Aug-31 17:07N 44°38' E 032°59'7 7.5
2014-Aug-31 16:10N 44°43' E 032°53'84 5.6
2014-Aug-31 01:11N 45°45' E 031°33'5 7.1
2014-Aug-31 00:32N 45°49' E 031°30'8 7.4
2014-Aug-30 23:30N 45°54' E 031°22'16 7.4
2014-Aug-30 21:17N 46°06' E 031°06'13 7.3
2014-Aug-30 19:33N 46°15' E 030°53'8 7.4
2014-Aug-30 18:32N 46°18' E 030°43'329 7.6
2014-Aug-28 23:19N 40°58' E 028°60'8 9.3
2014-Aug-28 22:28N 40°51' E 029°00'4 0.6
2014-Aug-28 16:26N 40°47' E 029°01'2 0.8
2014-Aug-28 14:27N 40°48' E 029°03'8 8.5
2014-Aug-28 13:33N 40°43' E 029°11'2 0.8
2014-Aug-28 10:20N 40°45' E 029°08'4 2.0
2014-Aug-28 08:31N 40°45' E 029°13'1210.4
2014-Aug-28 07:24N 40°45' E 029°29'8 8.9
2014-Aug-28 06:31N 40°45' E 029°39'3 0.1
2014-Aug-26 04:04N 40°44' E 029°43'912.5
2014-Aug-26 03:22N 40°45' E 029°31'8 9.9
2014-Aug-26 02:33N 40°44' E 029°21'9 9.1
2014-Aug-26 01:33N 40°46' E 029°09'2 1.0
2014-Aug-25 23:15N 40°48' E 029°07'1 1.2
2014-Aug-25 22:15N 40°47' E 029°08'2 1.0
2014-Aug-25 20:25N 40°47' E 029°11'6 7.0
2014-Aug-25 19:31N 40°50' E 029°03'7 6.9
2014-Aug-25 18:29N 40°55' E 028°56'25 1.2
2014-Aug-24 22:06N 41°18' E 029°05'14 9.3
2014-Aug-24 20:32N 41°25' E 029°23'9 9.6
2014-Aug-24 19:33N 41°28' E 029°34'10 9.5
2014-Aug-24 18:30N 41°31' E 029°47'  

Dump ship's entire track history